Time;durP1;ratioP1;P1;durP2;ratioP2;P2;SDS_P1;SDS_P2;PMS_P1;PMS_P2;Temp;Humidity;BMP_temperature;BMP_pressure;BME280_temperature;BME280_humidity;BME280_pressure;Samples;Min_cycle;Max_cycle;Signal;HPM_P1;HPM_P2
2022/08/27 00:02:14;;;;;;;11.50;4.32;;;;;;;17.52;100.00;97031.31;5049478;28;20025;-75
2022/08/27 00:04:40;;;;;;;13.45;4.60;;;;;;;17.53;100.00;97026.78;5032555;28;20089;-76
2022/08/27 00:07:06;;;;;;;14.55;4.60;;;;;;;17.61;100.00;97033.16;5032851;28;20116;-76
2022/08/27 00:09:32;;;;;;;13.05;4.13;;;;;;;17.60;100.00;97042.25;5032303;28;20053;-76
2022/08/27 00:11:58;;;;;;;8.07;4.15;;;;;;;17.56;100.00;97029.19;5049363;28;20040;-76
2022/08/27 00:14:25;;;;;;;10.80;4.13;;;;;;;17.52;100.00;97031.31;5049259;28;20464;-76
2022/08/27 00:16:51;;;;;;;10.60;3.90;;;;;;;17.56;100.00;97040.03;5052838;28;20030;-75
2022/08/27 00:19:17;;;;;;;8.82;4.50;;;;;;;17.55;100.00;97041.88;5053394;28;20024;-76
2022/08/27 00:21:42;;;;;;;17.33;4.90;;;;;;;17.50;100.00;97040.59;5036409;28;20076;-76
2022/08/27 00:24:08;;;;;;;7.25;3.88;;;;;;;17.40;100.00;97037.94;5036544;28;20130;-75
2022/08/27 00:26:34;;;;;;;10.32;3.88;;;;;;;17.43;100.00;97044.88;5036413;28;20029;-76
2022/08/27 00:29:00;;;;;;;11.65;4.45;;;;;;;17.39;100.00;97052.44;5036363;28;20031;-75
2022/08/27 00:31:26;;;;;;;7.95;4.03;;;;;;;17.34;100.00;97042.09;5036155;28;20037;-76
2022/08/27 00:33:51;;;;;;;13.68;4.20;;;;;;;17.32;100.00;97054.88;5036117;28;20032;-75
2022/08/27 00:36:17;;;;;;;13.98;4.35;;;;;;;17.33;100.00;97056.59;5036330;28;20518;-75
2022/08/27 00:38:43;;;;;;;8.45;4.78;;;;;;;17.26;100.00;97049.22;5052749;28;20025;-76
2022/08/27 00:41:10;;;;;;;7.25;4.22;;;;;;;17.21;100.00;97052.38;5052897;28;20053;-76
2022/08/27 00:43:47;;;;;;;8.73;4.35;;;;;;;17.10;100.00;97052.53;5036191;28;20024;-76
2022/08/27 00:46:26;;;;;;;13.73;4.25;;;;;;;17.05;100.00;97035.06;5054002;28;20029;-75
2022/08/27 00:48:56;;;;;;;11.65;4.40;;;;;;;17.02;100.00;97032.66;5035864;28;20051;-76
2022/08/27 00:51:23;;;;;;;7.78;3.67;;;;;;;16.91;100.00;97036.41;5036031;28;20489;-76
2022/08/27 00:53:49;;;;;;;10.15;3.92;;;;;;;16.96;100.00;97036.81;5034971;28;20064;-75
2022/08/27 00:56:20;;;;;;;6.63;3.60;;;;;;;17.00;100.00;97037.38;5035865;28;20058;-75
2022/08/27 00:58:50;;;;;;;14.03;4.47;;;;;;;16.98;100.00;97031.28;5035612;28;20056;-76
2022/08/27 01:01:19;;;;;;;7.85;3.90;;;;;;;16.96;100.00;97038.66;5053702;28;20029;-76
2022/08/27 01:03:58;;;;;;;13.52;4.35;;;;;;;16.71;100.00;97016.69;5035584;28;20029;-76
2022/08/27 01:06:27;;;;;;;9.52;3.80;;;;;;;16.66;100.00;97028.94;5053795;28;20493;-76
2022/08/27 01:09:06;;;;;;;10.20;4.28;;;;;;;16.68;100.00;97022.38;5053056;28;20107;-76
2022/08/27 01:11:32;;;;;;;9.88;3.70;;;;;;;16.76;100.00;97030.59;5035695;28;20032;-76
2022/08/27 01:13:58;;;;;;;9.95;3.70;;;;;;;16.68;100.00;97019.69;5052041;28;20096;-76
2022/08/27 01:16:26;;;;;;;9.93;4.40;;;;;;;16.77;100.00;97042.25;5052322;28;20103;-77
2022/08/27 01:18:59;;;;;;;11.38;4.60;;;;;;;16.65;100.00;97030.78;5035511;28;20029;-77
2022/08/27 01:21:25;;;;;;;6.28;4.05;;;;;;;16.70;100.00;97052.78;5051997;28;20029;-74
2022/08/27 01:23:55;;;;;;;14.50;3.85;;;;;;;16.71;100.00;97051.81;5053077;28;20032;-76
2022/08/27 01:26:21;;;;;;;6.63;3.67;;;;;;;16.64;100.00;97042.56;5051824;28;20112;-75
2022/08/27 01:28:48;;;;;;;15.80;4.43;;;;;;;16.64;100.00;97042.56;5051775;28;20477;-76
2022/08/27 01:31:13;;;;;;;7.00;3.88;;;;;;;16.67;100.00;97036.03;5035251;28;20025;-75
2022/08/27 01:33:40;;;;;;;10.20;4.20;;;;;;;16.65;100.00;97033.47;5034975;28;20031;-75
2022/08/27 01:36:06;;;;;;;10.85;4.15;;;;;;;16.61;100.00;97034.75;5051482;28;20021;-75
2022/08/27 01:38:32;;;;;;;7.18;3.80;;;;;;;16.68;100.00;97038.59;5035174;28;20392;-75
2022/08/27 01:41:01;;;;;;;7.80;4.03;;;;;;;16.68;100.00;97044.00;5034913;28;20056;-76
2022/08/27 01:43:28;;;;;;;17.73;4.18;;;;;;;16.67;100.00;97036.88;5051747;28;20025;-76
2022/08/27 01:45:54;;;;;;;14.60;4.45;;;;;;;16.63;100.00;97043.59;5035125;28;20036;-75
2022/08/27 01:48:20;;;;;;;13.02;4.38;;;;;;;16.61;100.00;97045.56;5051608;28;20117;-75
2022/08/27 01:50:47;;;;;;;7.93;4.10;;;;;;;16.63;100.00;97050.81;5034698;28;20031;-76
2022/08/27 01:53:19;;;;;;;10.10;4.13;;;;;;;16.60;100.00;97051.13;5051372;28;20029;-76
2022/08/27 01:55:45;;;;;;;11.60;4.05;;;;;;;16.52;100.00;97053.66;5034739;28;20144;-75
2022/08/27 01:58:11;;;;;;;11.57;5.05;;;;;;;16.49;100.00;97052.06;5051307;28;20147;-75
2022/08/27 02:00:40;;;;;;;10.25;4.25;;;;;;;16.46;100.00;97046.97;5034732;28;20032;-75
2022/08/27 02:03:07;;;;;;;10.13;4.85;;;;;;;16.40;100.00;97042.13;5034296;28;20090;-75
2022/08/27 02:05:32;;;;;;;14.63;5.10;;;;;;;16.37;100.00;97036.16;5034540;28;20021;-75
2022/08/27 02:07:58;;;;;;;14.10;4.93;;;;;;;16.47;100.00;97051.38;5034574;28;20029;-76
2022/08/27 02:10:33;;;;;;;11.73;4.63;;;;;;;16.40;100.00;97042.13;5034402;28;20045;-74
2022/08/27 02:12:59;;;;;;;11.63;4.28;;;;;;;16.34;100.00;97036.44;5034235;28;20389;-75
2022/08/27 02:15:25;;;;;;;9.32;3.88;;;;;;;16.35;100.00;97046.25;5034527;28;20029;-75
2022/08/27 02:17:51;;;;;;;11.93;4.18;;;;;;;16.31;100.00;97051.09;5050944;28;20032;-74
2022/08/27 02:20:17;;;;;;;6.68;4.07;;;;;;;16.26;100.00;97047.97;5034129;28;20104;-75
2022/08/27 02:22:43;;;;;;;9.10;4.18;;;;;;;16.23;100.00;97043.72;5034238;28;20071;-75
2022/08/27 02:25:12;;;;;;;6.75;4.00;;;;;;;16.24;100.00;97060.78;5050866;28;20053;-75
2022/08/27 02:27:37;;;;;;;8.90;4.30;;;;;;;16.18;100.00;97043.28;5050820;28;20025;-76
2022/08/27 02:30:04;;;;;;;14.90;4.60;;;;;;;16.21;100.00;97055.66;5033938;28;20040;-76
2022/08/27 02:32:29;;;;;;;9.75;4.45;;;;;;;16.16;100.00;97041.72;5033972;28;20499;-75
2022/08/27 02:34:55;;;;;;;12.30;4.28;;;;;;;16.14;100.00;97060.75;5034239;28;20029;-75
2022/08/27 02:37:21;;;;;;;9.60;3.92;;;;;;;16.04;100.00;97051.81;5050013;28;20029;-75
2022/08/27 02:39:47;;;;;;;21.17;4.60;;;;;;;16.03;100.00;97060.03;5033752;28;20021;-76
2022/08/27 02:42:12;;;;;;;9.80;4.40;;;;;;;16.02;100.00;97055.66;5034332;28;20115;-75
2022/08/27 02:44:38;;;;;;;11.80;4.20;;;;;;;16.00;100.00;97061.16;5033647;28;20435;-76
2022/08/27 02:47:04;;;;;;;10.32;4.70;;;;;;;15.98;100.00;97070.41;5033846;28;20021;-75
2022/08/27 02:49:30;;;;;;;9.68;4.32;;;;;;;15.97;100.00;97063.28;5033607;28;20024;-76
2022/08/27 02:51:56;;;;;;;11.77;4.35;;;;;;;15.84;100.00;97073.50;5050479;28;20025;-75
2022/08/27 02:54:23;;;;;;;8.75;4.50;;;;;;;15.80;100.00;97080.16;5033762;28;20047;-75
2022/08/27 02:56:51;;;;;;;8.93;4.25;;;;;;;15.83;100.00;97074.50;5033413;28;20099;-76
2022/08/27 02:59:17;;;;;;;8.35;4.53;;;;;;;15.73;100.00;97064.53;5051439;28;20020;-75
2022/08/27 03:01:43;;;;;;;9.77;4.18;;;;;;;15.82;100.00;97075.47;5049899;28;20404;-76
2022/08/27 03:04:09;;;;;;;10.02;4.00;;;;;;;15.81;100.00;97079.19;5033522;28;20020;-75
2022/08/27 03:06:35;;;;;;;14.55;4.65;;;;;;;15.79;100.00;97081.13;5049901;28;20465;-76
2022/08/27 03:09:00;;;;;;;7.25;4.40;;;;;;;15.81;100.00;97080.00;5049886;28;20049;-75
2022/08/27 03:11:26;;;;;;;14.07;4.25;;;;;;;15.86;100.00;97076.91;5033657;28;20036;-75
2022/08/27 03:13:52;;;;;;;8.40;3.85;;;;;;;15.90;100.00;97079.19;5049539;28;20558;-74
2022/08/27 03:16:17;;;;;;;9.30;3.83;;;;;;;15.91;100.00;97080.03;5033451;28;20024;-73
2022/08/27 03:18:43;;;;;;;12.43;4.13;;;;;;;15.86;100.00;97072.38;5032965;28;20492;-74
2022/08/27 03:21:15;;;;;;;5.07;4.20;;;;;;;15.90;100.00;97083.75;5049931;28;20024;-74
2022/08/27 03:23:41;;;;;;;;;;;;;;;15.90;100.00;97072.94;5050143;28;20473;-74
2022/08/27 03:26:09;;;;;;;18.38;4.97;;;;;;;15.82;100.00;97079.03;5043130;28;19919;-74
2022/08/27 03:28:35;;;;;;;11.30;4.88;;;;;;;15.81;100.00;97084.56;5032937;28;20053;-76
2022/08/27 03:31:03;;;;;;;13.10;4.50;;;;;;;15.75;100.00;97083.25;5049780;28;20025;-75
2022/08/27 03:33:32;;;;;;;7.65;4.25;;;;;;;15.74;100.00;97095.06;5033135;28;20025;-75
2022/08/27 03:35:58;;;;;;;18.50;5.60;;;;;;;15.81;100.00;97090.78;5049492;28;20052;-75
2022/08/27 03:38:24;;;;;;;19.15;6.15;;;;;;;15.82;100.00;97091.66;5049699;28;20053;-74
2022/08/27 03:40:50;;;;;;;24.08;6.00;;;;;;;15.81;100.00;97085.41;5049362;28;20082;-75
2022/08/27 03:43:17;;;;;;;16.85;4.30;;;;;;;15.74;100.00;97081.56;5032800;28;20086;-75
2022/08/27 03:45:43;;;;;;;10.48;4.25;;;;;;;15.81;100.00;97098.88;5032705;28;20021;-75
2022/08/27 03:48:09;;;;;;;11.52;4.45;;;;;;;15.85;100.00;97103.03;5032868;28;20166;-75
2022/08/27 03:50:37;;;;;;;13.52;4.50;;;;;;;15.83;100.00;97093.38;5032730;28;20032;-75
2022/08/27 03:53:03;;;;;;;10.48;4.60;;;;;;;15.88;100.00;97107.28;5048143;28;20163;-76
2022/08/27 03:55:29;;;;;;;9.40;5.47;;;;;;;15.90;100.00;97106.19;5032992;28;20475;-75
2022/08/27 03:57:54;;;;;;;17.63;4.85;;;;;;;15.92;100.00;97108.72;5032513;28;20040;-75
2022/08/27 04:00:20;;;;;;;11.43;4.53;;;;;;;15.92;100.00;97101.47;5049416;28;20025;-75
2022/08/27 04:02:45;;;;;;;14.35;4.90;;;;;;;15.96;100.00;97104.75;5032594;28;20033;-75
2022/08/27 04:07:57;;;;;;;18.55;6.43;;;;;;;15.93;100.00;97111.28;5049679;28;20043;-75
2022/08/27 04:10:22;;;;;;;11.60;5.95;;;;;;;15.92;100.00;97116.81;5032370;28;20132;-74
2022/08/27 04:12:48;;;;;;;15.95;5.57;;;;;;;15.94;100.00;97110.28;5032356;28;20464;-75
2022/08/27 04:15:13;;;;;;;10.65;5.97;;;;;;;16.02;100.00;97117.69;5032595;28;20559;-74
2022/08/27 04:17:39;;;;;;;12.75;5.45;;;;;;;16.06;100.00;97116.41;5032581;28;20519;-74
2022/08/27 04:20:06;;;;;;;12.43;5.70;;;;;;;16.05;100.00;97125.50;5049034;28;20029;-75
2022/08/27 04:22:32;;;;;;;10.25;5.53;;;;;;;16.00;100.00;97120.50;5032628;28;20021;-76
2022/08/27 04:24:58;;;;;;;12.35;5.38;;;;;;;16.02;100.00;97120.41;5048792;28;20028;-75
2022/08/27 04:27:25;;;;;;;10.45;5.07;;;;;;;16.07;100.00;97121.69;5032547;28;20029;-75
2022/08/27 04:29:55;;;;;;;21.90;4.85;;;;;;;16.22;100.00;97124.81;5049020;28;20072;-77
2022/08/27 04:32:21;;;;;;;18.63;5.15;;;;;;;16.27;100.00;97120.69;5032454;28;20028;-75
2022/08/27 04:34:46;;;;;;;16.75;5.55;;;;;;;16.37;100.00;97118.00;5032396;28;20021;-75
2022/08/27 04:37:12;;;;;;;16.85;5.47;;;;;;;16.41;100.00;97121.28;5032361;28;20033;-76
2022/08/27 04:39:38;;;;;;;14.00;5.70;;;;;;;16.52;100.00;97123.88;5050020;28;20063;-77
2022/08/27 04:42:03;;;;;;;19.30;6.07;;;;;;;16.58;100.00;97131.44;5049247;28;20051;-76
2022/08/27 04:44:31;;;;;;;14.23;6.47;;;;;;;16.66;100.00;97134.25;5032544;28;20486;-76
2022/08/27 04:47:00;;;;;;;12.65;5.95;;;;;;;16.73;100.00;97125.44;5050434;28;20118;-75
2022/08/27 04:49:26;;;;;;;22.08;6.93;;;;;;;16.82;100.00;97122.88;5048880;28;20025;-75
2022/08/27 04:51:52;;;;;;;21.95;6.10;;;;;;;16.92;100.00;97121.03;5032281;28;20032;-75
2022/08/27 04:54:18;;;;;;;13.00;5.82;;;;;;;16.97;100.00;97124.13;5048724;28;20032;-75
2022/08/27 04:56:44;;;;;;;13.05;5.75;;;;;;;17.08;100.00;97126.66;5032175;28;20029;-75
2022/08/27 04:59:10;;;;;;;10.52;5.72;;;;;;;17.07;100.00;97130.38;5032153;28;20033;-75
2022/08/27 05:01:37;;;;;;;15.05;6.15;;;;;;;17.14;100.00;97134.19;5050534;28;20485;-74
2022/08/27 05:04:03;;;;;;;14.70;6.63;;;;;;;17.29;100.00;97149.81;5052319;28;20484;-76
2022/08/27 05:06:29;;;;;;;20.00;6.35;;;;;;;17.39;100.00;97144.38;5035629;28;20024;-76
2022/08/27 05:08:54;;;;;;;12.55;6.00;;;;;;;17.46;100.00;97137.38;5035383;28;20049;-76
2022/08/27 05:11:22;;;;;;;12.98;6.90;;;;;;;17.58;100.00;97136.22;5035356;28;20017;-75
2022/08/27 05:13:48;;;;;;;18.60;8.23;;;;;;;17.58;100.00;97133.53;5053334;28;20020;-76
2022/08/27 05:16:20;;;;;;;19.55;5.68;;;;;;;17.74;100.00;97138.31;5035294;28;20086;-76
2022/08/27 05:18:47;;;;;;;11.55;6.35;;;;;;;17.78;100.00;97139.72;5052117;28;20047;-75
2022/08/27 05:21:24;;;;;;;17.05;5.78;;;;;;;17.94;100.00;97145.31;5035044;28;20032;-76
2022/08/27 05:23:53;;;;;;;16.13;5.78;;;;;;;18.16;100.00;97147.63;5052029;28;20128;-81
2022/08/27 05:26:19;;;;;;;13.70;6.15;;;;;;;18.26;100.00;97136.72;5035740;28;20025;-81
2022/08/27 05:28:44;;;;;;;18.05;6.45;;;;;;;18.51;100.00;97136.03;5035281;28;20458;-76
2022/08/27 05:31:12;;;;;;;16.13;6.03;;;;;;;18.73;100.00;97132.84;5035181;28;20021;-76
2022/08/27 05:33:39;;;;;;;13.25;6.20;;;;;;;19.07;100.00;97124.84;5035044;28;20021;-78
2022/08/27 05:36:05;;;;;;;26.95;12.20;;;;;;;19.87;100.00;97139.94;5035105;28;20029;-77
2022/08/27 05:38:31;;;;;;;18.30;7.35;;;;;;;21.58;91.10;97145.50;5046124;28;20079;-76
2022/08/27 05:41:10;;;;;;;15.43;6.10;;;;;;;22.92;81.44;97133.50;5032323;28;20492;-77
2022/08/27 05:43:36;;;;;;;16.70;5.90;;;;;;;24.00;74.74;97110.31;5032394;28;20021;-76
2022/08/27 05:46:04;;;;;;;7.07;5.07;;;;;;;25.24;68.75;97091.78;5048866;28;20029;-75
2022/08/27 05:48:31;;;;;;;14.63;6.53;;;;;;;26.12;64.23;97077.41;5032199;28;20036;-76
2022/08/27 05:50:57;;;;;;;9.93;6.78;;;;;;;26.89;60.57;97043.13;5031859;28;20035;-75
2022/08/27 05:53:22;;;;;;;17.02;7.25;;;;;;;27.55;58.64;97045.03;5048608;28;20040;-76
2022/08/27 05:55:48;;;;;;;18.63;6.63;;;;;;;28.20;54.67;97028.41;5048627;28;20025;-76
2022/08/27 06:01:21;;;;;;;20.00;6.70;;;;;;;26.85;57.14;97021.78;5015834;28;20095;-75
2022/08/27 06:03:46;;;;;;;20.42;6.72;;;;;;;27.29;56.41;97022.00;5010839;28;20116;-76
2022/08/27 06:06:12;;;;;;;17.85;7.18;;;;;;;28.43;53.55;97016.84;5010626;28;20569;-76
2022/08/27 06:08:38;;;;;;;13.90;7.15;;;;;;;28.29;53.72;97015.25;5048213;28;20815;-77
2022/08/27 06:11:05;;;;;;;40.53;10.20;;;;;;;29.26;51.65;97023.94;5031422;28;20041;-77
2022/08/27 06:13:33;;;;;;;15.85;6.70;;;;;;;28.97;50.85;97013.56;5030127;28;20095;-76
2022/08/27 06:16:07;;;;;;;11.68;7.18;;;;;;;29.71;49.22;97015.47;5031677;28;20496;-76
2022/08/27 06:18:37;;;;;;;18.42;6.55;;;;;;;28.39;51.53;97010.94;5031696;28;20463;-77
2022/08/27 06:21:03;;;;;;;15.38;6.13;;;;;;;27.96;52.78;97021.66;5031947;28;20502;-75
2022/08/27 06:23:28;;;;;;;13.35;5.88;;;;;;;29.60;49.60;97025.31;5031758;28;20531;-77
2022/08/27 06:25:56;;;;;;;18.98;7.10;;;;;;;31.17;46.33;97005.91;5048303;28;20182;-77
2022/08/27 06:28:23;;;;;;;18.45;6.45;;;;;;;31.75;44.38;96996.84;5031428;28;20037;-75
2022/08/27 06:30:49;;;;;;;19.80;6.55;;;;;;;32.71;42.39;97005.31;5031777;28;20059;-76
2022/08/27 06:33:15;;;;;;;13.00;8.50;;;;;;;33.50;40.51;96995.09;5048412;28;20296;-77
2022/08/27 06:35:41;;;;;;;13.70;6.60;;;;;;;34.29;38.90;96991.00;5031523;28;20086;-76
2022/08/27 06:38:06;;;;;;;12.95;6.60;;;;;;;34.39;38.57;96980.03;5047658;28;20417;-75
2022/08/27 06:40:32;;;;;;;21.33;8.18;;;;;;;33.66;39.09;96977.59;5031103;28;20032;-76
2022/08/27 06:42:59;;;;;;;13.23;6.55;;;;;;;34.33;38.44;96980.22;5031068;28;20127;-75
2022/08/27 06:45:25;;;;;;;9.90;5.68;;;;;;;34.33;37.67;96980.22;5047781;28;20037;-76
2022/08/27 06:47:50;;;;;;;14.57;6.15;;;;;;;33.42;39.02;96976.94;5030946;28;20820;-77
2022/08/27 06:50:16;;;;;;;15.27;6.60;;;;;;;31.52;42.10;96983.88;5047544;28;20373;-76
2022/08/27 06:52:41;;;;;;;14.07;5.75;;;;;;;30.76;43.45;96983.81;5030889;28;20132;-77
2022/08/27 06:55:10;;;;;;;12.63;6.20;;;;;;;32.61;41.35;96996.78;5047339;28;20095;-77
2022/08/27 06:57:36;;;;;;;18.17;6.85;;;;;;;33.24;40.04;96982.72;5047271;28;20093;-75
2022/08/27 07:00:03;;;;;;;14.18;6.63;;;;;;;34.11;38.36;96988.56;5030961;28;20032;-76
2022/08/27 07:02:28;;;;;;;15.52;6.30;;;;;;;34.27;37.88;96991.25;5030561;28;20098;-76
2022/08/27 07:04:54;;;;;;;16.75;6.43;;;;;;;34.14;38.07;96985.25;5047475;28;20481;-76
2022/08/27 07:07:19;;;;;;;33.13;8.38;;;;;;;35.11;36.66;96982.50;5030727;28;20024;-76
2022/08/27 07:09:45;;;;;;;13.00;5.90;;;;;;;34.73;36.87;96978.75;5030312;28;20587;-76
2022/08/27 07:12:11;;;;;;;14.32;5.50;;;;;;;35.34;35.90;96979.38;5046634;28;20031;-76
2022/08/27 07:14:37;;;;;;;10.07;5.45;;;;;;;35.07;36.08;96973.81;5030479;28;20029;-76
2022/08/27 07:17:03;;;;;;;10.18;6.00;;;;;;;35.18;36.02;96985.91;5047057;28;20025;-76
2022/08/27 07:19:29;;;;;;;13.98;6.20;;;;;;;35.43;35.18;96969.44;5046873;28;20028;-76
2022/08/27 07:21:54;;;;;;;6.78;4.57;;;;;;;34.44;36.91;96968.97;5030177;28;20065;-76
2022/08/27 07:24:20;;;;;;;11.10;4.95;;;;;;;34.90;35.50;96961.13;5030178;28;20415;-76
2022/08/27 07:26:46;;;;;;;13.48;4.53;;;;;;;34.72;36.12;96970.69;5030109;28;20031;-76
2022/08/27 07:29:13;;;;;;;11.85;5.35;;;;;;;33.70;36.99;96974.06;5030299;28;20036;-76
2022/08/27 07:31:40;;;;;;;9.75;4.35;;;;;;;35.71;34.91;96990.56;5030371;28;20033;-75
2022/08/27 07:34:06;;;;;;;12.50;5.10;;;;;;;36.29;33.68;96975.59;5046572;28;20040;-75
2022/08/27 07:36:33;;;;;;;9.02;4.90;;;;;;;37.00;33.07;96970.28;5046675;28;20055;-77
2022/08/27 07:38:58;;;;;;;11.15;5.13;;;;;;;37.04;32.72;96968.63;5029952;28;20411;-77
2022/08/27 07:41:24;;;;;;;10.15;4.30;;;;;;;36.54;33.44;96959.00;5046778;28;20050;-77
2022/08/27 07:46:34;;;;;;;10.07;5.00;;;;;;;37.24;32.41;96954.66;5046850;28;20043;-77
2022/08/27 07:49:00;;;;;;;16.33;4.57;;;;;;;36.94;32.28;96953.50;5029590;28;20063;-75
2022/08/27 07:51:30;;;;;;;13.23;4.68;;;;;;;37.11;32.79;96960.78;5046738;28;20562;-75
2022/08/27 07:53:56;;;;;;;16.40;4.75;;;;;;;38.15;31.02;96962.97;5046537;28;20123;-76
2022/08/27 07:56:22;;;;;;;9.90;5.78;;;;;;;38.17;31.29;96961.56;5046657;28;20417;-76
2022/08/27 07:58:48;;;;;;;10.73;4.22;;;;;;;37.47;31.80;96966.13;5046941;28;20484;-76
2022/08/27 08:01:13;;;;;;;13.10;4.50;;;;;;;37.96;30.96;96969.13;5030342;28;20025;-76
2022/08/27 08:03:40;;;;;;;6.97;4.68;;;;;;;37.15;31.61;96961.91;5030136;28;20485;-76
2022/08/27 08:06:11;;;;;;;23.23;6.88;;;;;;;37.54;31.76;96968.63;5029879;28;20484;-76
2022/08/27 08:08:38;;;;;;;11.60;5.18;;;;;;;37.07;32.07;96954.09;5046293;28;20023;-76
2022/08/27 08:11:04;;;;;;;13.80;4.70;;;;;;;37.75;31.44;96970.28;5029875;28;20025;-76
2022/08/27 08:13:30;;;;;;;13.40;5.57;;;;;;;38.34;31.19;96972.38;5029781;28;20029;-76
2022/08/27 08:15:57;;;;;;;8.07;4.30;;;;;;;37.90;31.29;96958.28;5046446;28;20519;-76
2022/08/27 08:18:22;;;;;;;10.57;4.75;;;;;;;37.56;31.07;96948.81;5029631;28;20025;-77
2022/08/27 08:20:48;;;;;;;7.00;3.95;;;;;;;38.14;30.35;96955.69;5029832;28;20070;-77
2022/08/27 08:23:14;;;;;;;11.95;4.45;;;;;;;38.81;30.06;96955.16;5029963;28;20069;-77
2022/08/27 08:25:40;;;;;;;11.88;3.88;;;;;;;40.08;28.56;96955.75;5029899;28;20044;-77
2022/08/27 08:28:06;;;;;;;12.50;4.40;;;;;;;40.44;28.25;96948.63;5046560;28;20047;-77
2022/08/27 08:30:32;;;;;;;9.15;4.43;;;;;;;41.04;27.57;96940.53;5029986;28;20128;-77
2022/08/27 08:32:57;;;;;;;15.70;4.22;;;;;;;39.37;29.34;96933.19;5029740;28;20040;-76
2022/08/27 08:35:23;;;;;;;13.40;4.80;;;;;;;40.03;28.78;96937.03;5046372;28;20028;-77
2022/08/27 08:37:49;;;;;;;10.40;4.05;;;;;;;39.57;28.62;96924.59;5049743;28;20037;-76
2022/08/27 08:40:28;;;;;;;9.18;3.75;;;;;;;40.25;28.15;96938.47;5033263;28;20496;-77
2022/08/27 08:42:55;;;;;;;6.18;4.28;;;;;;;40.17;27.46;96925.13;5033561;28;20104;-76
2022/08/27 08:45:25;;;;;;;9.18;3.78;;;;;;;39.89;28.21;96929.63;5033688;28;20056;-76
2022/08/27 08:47:56;;;;;;;7.78;4.10;;;;;;;41.49;25.61;96950.19;5033633;28;20029;-77
2022/08/27 08:50:50;;;;;;;7.32;3.40;;;;;;;42.17;24.37;96927.91;5033099;28;20397;-78
2022/08/27 08:53:34;;;;;;;11.05;3.28;;;;;;;41.38;24.80;96920.63;5049640;28;20480;-78
2022/08/27 08:56:02;;;;;;;7.78;4.10;;;;;;;40.51;25.28;96920.19;5050823;28;20488;-75
2022/08/27 08:58:33;;;;;;;10.10;5.25;;;;;;;40.89;24.74;96921.06;5033000;28;20024;-76
2022/08/27 09:01:01;;;;;;;12.52;4.80;;;;;;;41.44;24.70;96925.03;5049303;28;20381;-78
2022/08/27 09:03:34;;;;;;;16.48;8.25;;;;;;;40.95;24.51;96909.50;5032860;28;20111;-77
2022/08/27 09:06:26;;;;;;;11.07;6.50;;;;;;;41.60;24.15;96917.97;5033231;28;20454;-77
2022/08/27 09:08:51;;;;;;;15.10;4.65;;;;;;;41.91;22.94;96918.25;5048595;28;20149;-76
2022/08/27 09:11:30;;;;;;;7.40;3.50;;;;;;;42.42;22.18;96895.59;5049450;28;20056;-77
2022/08/27 09:14:00;;;;;;;13.27;5.13;;;;;;;41.69;23.71;96909.69;5032568;28;20083;-77
2022/08/27 09:16:26;;;;;;;6.78;3.47;;;;;;;42.00;23.41;96911.59;5032797;28;20060;-77
2022/08/27 09:18:51;;;;;;;11.10;4.03;;;;;;;42.71;22.31;96912.09;5032776;28;20549;-76
2022/08/27 09:21:28;;;;;;;16.50;3.60;;;;;;;44.23;20.93;96909.94;5032576;28;20033;-77
2022/08/27 09:24:01;;;;;;;12.35;2.67;;;;;;;42.06;20.86;96887.84;5049124;28;20033;-77
2022/08/27 09:26:29;;;;;;;17.27;3.28;;;;;;;43.28;21.45;96910.50;5050338;28;20025;-77
2022/08/27 09:29:15;;;;;;;7.63;3.05;;;;;;;43.00;21.38;96879.63;5032667;28;20037;-77
2022/08/27 09:31:42;;;;;;;8.00;3.05;;;;;;;43.44;21.35;96887.25;5034444;28;20059;-77
2022/08/27 09:34:08;;;;;;;6.63;2.67;;;;;;;42.35;21.48;96881.09;5049028;28;21080;-76
2022/08/27 09:36:34;;;;;;;6.43;4.10;;;;;;;43.07;21.68;96891.28;5048891;28;20104;-77
2022/08/27 09:39:05;;;;;;;8.35;3.05;;;;;;;44.83;20.16;96904.44;5047717;28;20151;-77
2022/08/27 09:41:42;;;;;;;7.68;3.40;;;;;;;44.27;20.23;96882.75;5034348;28;20031;-77
2022/08/27 09:44:16;;;;;;;8.63;3.22;;;;;;;44.32;20.31;96867.66;5049703;28;20087;-78
2022/08/27 09:47:01;;;;;;;7.75;3.35;;;;;;;43.77;20.94;96878.53;5051459;28;20029;-77
2022/08/27 09:49:27;;;;;;;8.27;2.90;;;;;;;43.17;21.27;96876.94;5034889;28;20559;-77
2022/08/27 09:51:54;;;;;;;8.85;2.95;;;;;;;43.85;20.87;96881.38;5034914;28;20032;-77
2022/08/27 09:54:54;;;;;;;9.30;3.35;;;;;;;45.24;19.29;96889.88;5034846;28;20025;-77
2022/08/27 09:57:31;;;;;;;14.20;3.65;;;;;;;44.19;20.11;96881.56;5049756;28;20406;-77
2022/08/27 09:59:57;;;;;;;8.57;3.40;;;;;;;43.64;21.35;96872.63;5051492;28;20028;-78
2022/08/27 10:02:24;;;;;;;14.52;3.22;;;;;;;44.90;20.50;96890.69;5051402;28;20400;-78
2022/08/27 10:04:52;;;;;;;10.50;3.30;;;;;;;45.07;20.60;96879.41;5051427;28;20397;-78
2022/08/27 10:07:43;;;;;;;11.30;3.15;;;;;;;44.50;20.91;96866.50;5034509;28;20024;-76
2022/08/27 10:10:19;;;;;;;19.67;3.40;;;;;;;43.68;21.12;96864.38;5050757;28;20120;-78
2022/08/27 10:13:03;;;;;;;6.78;3.45;;;;;;;43.55;20.91;96870.91;5051021;28;20024;-76
2022/08/27 10:15:33;;;;;;;6.82;3.72;;;;;;;43.18;21.06;96869.31;5050928;28;20073;-78
2022/08/27 10:18:06;;;;;;;13.25;8.05;;;;;;;43.01;21.19;96860.75;5050679;28;20107;-77
2022/08/27 10:20:35;;;;;;;9.00;4.78;;;;;;;43.06;21.89;96881.19;5050777;28;20028;-77
2022/08/27 10:23:19;;;;;;;18.70;4.28;;;;;;;44.10;19.84;96888.28;5050536;28;20029;-78
2022/08/27 10:25:48;;;;;;;9.57;3.40;;;;;;;44.56;19.21;96882.16;5034171;28;20477;-78
2022/08/27 10:28:37;;;;;;;8.35;3.30;;;;;;;45.69;18.66;96884.69;5051810;28;20035;-77
2022/08/27 10:31:22;;;;;;;6.95;3.20;;;;;;;44.84;18.37;96857.28;5034142;28;20511;-77
2022/08/27 10:34:14;;;;;;;11.10;4.50;;;;;;;42.77;20.00;96846.09;5033907;28;20117;-77
2022/08/27 10:36:52;;;;;;;4.78;3.10;;;;;;;43.25;19.37;96851.97;5040034;28;20492;-77
2022/08/27 10:39:41;;;;;;;9.30;3.67;;;;;;;43.42;19.50;96852.94;5050619;28;20090;-77
2022/08/27 10:42:11;;;;;;;7.80;4.38;;;;;;;43.58;19.54;96850.53;5022312;28;20041;-78
2022/08/27 10:44:58;;;;;;;11.05;3.78;;;;;;;43.27;19.32;96846.84;5051518;28;20009;-78
2022/08/27 10:47:46;;;;;;;9.40;3.28;;;;;;;41.46;20.81;96849.69;5049450;28;20043;-78
2022/08/27 10:50:24;;;;;;;12.05;6.18;;;;;;;41.40;20.39;96846.16;5049809;28;20037;-78
2022/08/27 10:52:56;;;;;;;11.45;4.28;;;;;;;43.49;18.74;96858.94;5033716;28;20032;-79
2022/08/27 10:55:27;;;;;;;17.95;10.63;;;;;;;42.42;20.00;96853.38;5033538;28;20079;-77
2022/08/27 10:58:14;;;;;;;10.73;3.42;;;;;;;42.91;19.02;96847.72;5033623;28;20044;-77
2022/08/27 11:00:58;;;;;;;4.45;3.17;;;;;;;43.76;18.30;96860.78;5049813;28;20037;-78
2022/08/27 11:03:45;;;;;;;5.13;3.00;;;;;;;44.64;18.14;96870.88;5049987;28;20040;-77
2022/08/27 11:06:31;;;;;;;12.40;3.72;;;;;;;44.30;18.79;96847.41;5033188;28;20119;-77
2022/08/27 11:09:00;;;;;;;14.02;4.03;;;;;;;43.58;19.18;96847.72;5049877;28;20059;-77
2022/08/27 11:11:50;;;;;;;10.40;3.42;;;;;;;43.69;19.12;96851.91;5033293;28;20036;-76
2022/08/27 11:14:38;;;;;;;9.83;3.17;;;;;;;44.05;18.83;96851.78;5033075;28;20515;-77
2022/08/27 11:17:18;;;;;;;8.38;3.33;;;;;;;44.87;18.38;96854.63;5033185;28;20029;-76
2022/08/27 11:19:57;;;;;;;6.87;3.00;;;;;;;45.08;18.24;96849.16;5032982;28;20035;-77
2022/08/27 11:22:35;;;;;;;6.45;3.17;;;;;;;45.20;18.52;96850.13;5032818;28;20028;-77
2022/08/27 11:25:08;;;;;;;13.85;3.45;;;;;;;45.10;18.69;96839.16;5049722;28;20025;-78
2022/08/27 11:27:35;;;;;;;8.27;3.13;;;;;;;44.83;18.91;96839.50;5033065;28;20124;-80
2022/08/27 11:30:05;;;;;;;11.27;3.83;;;;;;;44.60;18.99;96840.81;5049567;28;20029;-78
2022/08/27 11:33:14;;;;;;;11.80;3.65;;;;;;;44.23;18.39;96823.31;5049746;28;20040;-78
2022/08/27 11:36:01;;;;;;;6.88;3.83;;;;;;;44.10;18.79;96829.03;5042849;28;20039;-76
2022/08/27 11:38:35;;;;;;;7.82;3.08;;;;;;;44.52;19.22;96839.63;5049194;28;20074;-79
2022/08/27 11:41:24;;;;;;;6.28;3.70;;;;;;;44.64;19.34;96841.84;5050868;28;20033;-78
2022/08/27 11:43:51;;;;;;;11.70;5.47;;;;;;;43.05;19.64;96814.72;5042129;28;20403;-78